sensor_id;sensor_type;location;lat;lon;timestamp;P1;durP1;ratioP1;P2;durP2;ratioP2
8268;SDS011;4174;48.304;16.364;2022-10-31T00:04:04;25.48;;;10.95;;
8268;SDS011;4174;48.304;16.364;2022-10-31T00:10:13;27.30;;;11.80;;
8268;SDS011;4174;48.304;16.364;2022-10-31T00:16:20;27.40;;;11.57;;
8268;SDS011;4174;48.304;16.364;2022-10-31T00:22:26;27.47;;;11.80;;
8268;SDS011;4174;48.304;16.364;2022-10-31T00:28:33;26.87;;;11.90;;
8268;SDS011;4174;48.304;16.364;2022-10-31T00:34:39;22.90;;;10.70;;
8268;SDS011;4174;48.304;16.364;2022-10-31T00:40:46;20.10;;;9.20;;
8268;SDS011;4174;48.304;16.364;2022-10-31T00:46:53;22.33;;;10.07;;
8268;SDS011;4174;48.304;16.364;2022-10-31T00:53:02;19.17;;;9.00;;
8268;SDS011;4174;48.304;16.364;2022-10-31T00:59:10;21.25;;;9.63;;
8268;SDS011;4174;48.304;16.364;2022-10-31T01:05:25;20.53;;;9.60;;
8268;SDS011;4174;48.304;16.364;2022-10-31T01:11:36;16.60;;;7.60;;
8268;SDS011;4174;48.304;16.364;2022-10-31T01:17:40;17.33;;;7.67;;
8268;SDS011;4174;48.304;16.364;2022-10-31T01:23:45;15.82;;;7.15;;
8268;SDS011;4174;48.304;16.364;2022-10-31T01:29:50;16.55;;;7.07;;
8268;SDS011;4174;48.304;16.364;2022-10-31T01:42:21;14.57;;;6.78;;
8268;SDS011;4174;48.304;16.364;2022-10-31T01:48:26;13.97;;;6.13;;
8268;SDS011;4174;48.304;16.364;2022-10-31T01:54:41;13.50;;;6.20;;
8268;SDS011;4174;48.304;16.364;2022-10-31T02:07:16;13.73;;;6.50;;
8268;SDS011;4174;48.304;16.364;2022-10-31T02:26:04;16.07;;;6.40;;
8268;SDS011;4174;48.304;16.364;2022-10-31T02:32:12;13.38;;;5.93;;
8268;SDS011;4174;48.304;16.364;2022-10-31T02:38:24;14.03;;;5.93;;
8268;SDS011;4174;48.304;16.364;2022-10-31T02:44:49;14.00;;;6.17;;
8268;SDS011;4174;48.304;16.364;2022-10-31T02:51:01;14.60;;;6.57;;
8268;SDS011;4174;48.304;16.364;2022-10-31T02:57:04;11.17;;;4.87;;
8268;SDS011;4174;48.304;16.364;2022-10-31T03:03:11;9.75;;;3.97;;
8268;SDS011;4174;48.304;16.364;2022-10-31T03:09:27;7.32;;;3.17;;
8268;SDS011;4174;48.304;16.364;2022-10-31T03:15:37;7.62;;;3.00;;
8268;SDS011;4174;48.304;16.364;2022-10-31T03:21:49;7.00;;;2.90;;
8268;SDS011;4174;48.304;16.364;2022-10-31T03:27:52;7.70;;;3.20;;
8268;SDS011;4174;48.304;16.364;2022-10-31T03:34:05;8.23;;;3.10;;
8268;SDS011;4174;48.304;16.364;2022-10-31T03:40:12;7.43;;;3.20;;
8268;SDS011;4174;48.304;16.364;2022-10-31T03:46:18;8.10;;;3.20;;
8268;SDS011;4174;48.304;16.364;2022-10-31T03:52:28;8.47;;;3.70;;
8268;SDS011;4174;48.304;16.364;2022-10-31T03:58:42;8.63;;;3.77;;
8268;SDS011;4174;48.304;16.364;2022-10-31T04:04:48;7.53;;;3.20;;
8268;SDS011;4174;48.304;16.364;2022-10-31T04:10:55;7.80;;;3.50;;
8268;SDS011;4174;48.304;16.364;2022-10-31T04:17:03;7.13;;;3.00;;
8268;SDS011;4174;48.304;16.364;2022-10-31T04:23:25;8.32;;;3.20;;
8268;SDS011;4174;48.304;16.364;2022-10-31T04:29:28;6.77;;;2.80;;
8268;SDS011;4174;48.304;16.364;2022-10-31T04:35:33;7.82;;;2.92;;
8268;SDS011;4174;48.304;16.364;2022-10-31T04:41:39;6.50;;;2.60;;
8268;SDS011;4174;48.304;16.364;2022-10-31T04:47:45;6.73;;;2.50;;
8268;SDS011;4174;48.304;16.364;2022-10-31T04:53:53;5.60;;;2.20;;
8268;SDS011;4174;48.304;16.364;2022-10-31T05:00:00;6.07;;;2.27;;
8268;SDS011;4174;48.304;16.364;2022-10-31T05:06:10;5.30;;;2.10;;
8268;SDS011;4174;48.304;16.364;2022-10-31T05:12:17;5.60;;;2.00;;
8268;SDS011;4174;48.304;16.364;2022-10-31T05:18:21;5.90;;;2.00;;
8268;SDS011;4174;48.304;16.364;2022-10-31T05:24:27;5.40;;;1.83;;
8268;SDS011;4174;48.304;16.364;2022-10-31T05:30:34;5.17;;;2.10;;
8268;SDS011;4174;48.304;16.364;2022-10-31T05:36:44;5.10;;;1.80;;
8268;SDS011;4174;48.304;16.364;2022-10-31T05:42:50;5.45;;;2.15;;
8268;SDS011;4174;48.304;16.364;2022-10-31T05:48:57;5.83;;;2.30;;
8268;SDS011;4174;48.304;16.364;2022-10-31T05:55:03;7.00;;;2.40;;
8268;SDS011;4174;48.304;16.364;2022-10-31T06:01:11;6.30;;;2.40;;
8268;SDS011;4174;48.304;16.364;2022-10-31T06:07:15;6.60;;;2.37;;
8268;SDS011;4174;48.304;16.364;2022-10-31T06:13:22;6.40;;;2.40;;
8268;SDS011;4174;48.304;16.364;2022-10-31T06:19:30;7.53;;;2.40;;
8268;SDS011;4174;48.304;16.364;2022-10-31T06:25:35;6.17;;;2.40;;
8268;SDS011;4174;48.304;16.364;2022-10-31T06:31:46;5.70;;;2.20;;
8268;SDS011;4174;48.304;16.364;2022-10-31T06:37:59;5.87;;;2.10;;
8268;SDS011;4174;48.304;16.364;2022-10-31T06:44:05;5.72;;;2.22;;
8268;SDS011;4174;48.304;16.364;2022-10-31T06:50:12;6.10;;;2.50;;
8268;SDS011;4174;48.304;16.364;2022-10-31T06:56:19;6.23;;;2.40;;
8268;SDS011;4174;48.304;16.364;2022-10-31T07:02:27;6.27;;;2.53;;
8268;SDS011;4174;48.304;16.364;2022-10-31T07:08:33;6.37;;;2.42;;
8268;SDS011;4174;48.304;16.364;2022-10-31T07:14:40;7.30;;;2.60;;
8268;SDS011;4174;48.304;16.364;2022-10-31T07:20:48;6.73;;;2.60;;
8268;SDS011;4174;48.304;16.364;2022-10-31T07:27:00;7.40;;;2.90;;
8268;SDS011;4174;48.304;16.364;2022-10-31T07:33:08;7.32;;;2.97;;
8268;SDS011;4174;48.304;16.364;2022-10-31T07:39:15;6.90;;;3.00;;
8268;SDS011;4174;48.304;16.364;2022-10-31T07:45:24;8.37;;;3.50;;
8268;SDS011;4174;48.304;16.364;2022-10-31T07:51:30;9.00;;;3.35;;
8268;SDS011;4174;48.304;16.364;2022-10-31T07:57:38;8.50;;;3.40;;
8268;SDS011;4174;48.304;16.364;2022-10-31T08:03:44;9.50;;;3.65;;
8268;SDS011;4174;48.304;16.364;2022-10-31T08:09:52;9.65;;;3.70;;
8268;SDS011;4174;48.304;16.364;2022-10-31T08:16:00;8.93;;;3.67;;
8268;SDS011;4174;48.304;16.364;2022-10-31T08:22:06;9.63;;;3.87;;
8268;SDS011;4174;48.304;16.364;2022-10-31T08:28:16;9.52;;;4.00;;
8268;SDS011;4174;48.304;16.364;2022-10-31T08:34:22;10.63;;;4.22;;
8268;SDS011;4174;48.304;16.364;2022-10-31T08:40:28;9.55;;;3.95;;
8268;SDS011;4174;48.304;16.364;2022-10-31T08:46:33;10.48;;;4.10;;
8268;SDS011;4174;48.304;16.364;2022-10-31T08:52:44;11.37;;;4.43;;
8268;SDS011;4174;48.304;16.364;2022-10-31T08:58:52;11.52;;;4.97;;
8268;SDS011;4174;48.304;16.364;2022-10-31T09:04:59;11.73;;;4.70;;
8268;SDS011;4174;48.304;16.364;2022-10-31T09:11:09;12.63;;;5.03;;
8268;SDS011;4174;48.304;16.364;2022-10-31T09:17:14;11.05;;;4.85;;
8268;SDS011;4174;48.304;16.364;2022-10-31T09:23:22;11.67;;;5.10;;
8268;SDS011;4174;48.304;16.364;2022-10-31T09:29:30;11.87;;;5.00;;
8268;SDS011;4174;48.304;16.364;2022-10-31T09:35:34;11.98;;;4.95;;
8268;SDS011;4174;48.304;16.364;2022-10-31T09:41:58;11.17;;;5.03;;
8268;SDS011;4174;48.304;16.364;2022-10-31T09:48:30;14.67;;;5.80;;
8268;SDS011;4174;48.304;16.364;2022-10-31T09:54:46;12.90;;;5.77;;
8268;SDS011;4174;48.304;16.364;2022-10-31T10:00:56;13.45;;;5.60;;
8268;SDS011;4174;48.304;16.364;2022-10-31T10:07:03;11.63;;;5.00;;
8268;SDS011;4174;48.304;16.364;2022-10-31T10:13:30;13.40;;;5.27;;
8268;SDS011;4174;48.304;16.364;2022-10-31T10:20:10;15.32;;;6.20;;
8268;SDS011;4174;48.304;16.364;2022-10-31T10:32:45;16.23;;;6.93;;
8268;SDS011;4174;48.304;16.364;2022-10-31T10:38:58;14.33;;;6.33;;
8268;SDS011;4174;48.304;16.364;2022-10-31T10:45:36;15.90;;;6.60;;
8268;SDS011;4174;48.304;16.364;2022-10-31T10:51:38;16.62;;;7.03;;
8268;SDS011;4174;48.304;16.364;2022-10-31T10:57:55;16.70;;;6.80;;
8268;SDS011;4174;48.304;16.364;2022-10-31T11:04:11;18.12;;;7.87;;
8268;SDS011;4174;48.304;16.364;2022-10-31T11:10:37;18.33;;;7.68;;
8268;SDS011;4174;48.304;16.364;2022-10-31T11:23:18;19.77;;;8.00;;
8268;SDS011;4174;48.304;16.364;2022-10-31T11:29:23;17.20;;;7.53;;
8268;SDS011;4174;48.304;16.364;2022-10-31T11:35:29;19.80;;;8.70;;
8268;SDS011;4174;48.304;16.364;2022-10-31T11:47:53;23.53;;;9.93;;
8268;SDS011;4174;48.304;16.364;2022-10-31T11:53:58;26.90;;;11.30;;
8268;SDS011;4174;48.304;16.364;2022-10-31T12:06:32;28.83;;;11.90;;
8268;SDS011;4174;48.304;16.364;2022-10-31T12:12:43;33.00;;;13.18;;
8268;SDS011;4174;48.304;16.364;2022-10-31T12:25:43;29.70;;;12.30;;
8268;SDS011;4174;48.304;16.364;2022-10-31T12:31:58;34.05;;;13.10;;
8268;SDS011;4174;48.304;16.364;2022-10-31T12:38:36;29.63;;;12.13;;
8268;SDS011;4174;48.304;16.364;2022-10-31T12:51:28;43.47;;;18.60;;
8268;SDS011;4174;48.304;16.364;2022-10-31T13:10:50;67.03;;;24.17;;
8268;SDS011;4174;48.304;16.364;2022-10-31T13:17:01;29.80;;;12.10;;
8268;SDS011;4174;48.304;16.364;2022-10-31T13:23:11;33.33;;;11.37;;
8268;SDS011;4174;48.304;16.364;2022-10-31T13:29:30;27.80;;;11.30;;
8268;SDS011;4174;48.304;16.364;2022-10-31T13:42:10;31.90;;;11.97;;
8268;SDS011;4174;48.304;16.364;2022-10-31T13:48:35;31.25;;;11.82;;
8268;SDS011;4174;48.304;16.364;2022-10-31T13:54:40;35.13;;;13.82;;
8268;SDS011;4174;48.304;16.364;2022-10-31T14:00:44;35.53;;;14.17;;
8268;SDS011;4174;48.304;16.364;2022-10-31T14:07:07;46.08;;;16.25;;
8268;SDS011;4174;48.304;16.364;2022-10-31T14:13:14;43.53;;;16.00;;
8268;SDS011;4174;48.304;16.364;2022-10-31T14:19:18;46.67;;;15.70;;
8268;SDS011;4174;48.304;16.364;2022-10-31T14:25:28;50.22;;;16.52;;
8268;SDS011;4174;48.304;16.364;2022-10-31T14:31:37;47.57;;;15.50;;
8268;SDS011;4174;48.304;16.364;2022-10-31T14:44:09;49.60;;;16.67;;
8268;SDS011;4174;48.304;16.364;2022-10-31T14:57:01;50.27;;;16.67;;
8268;SDS011;4174;48.304;16.364;2022-10-31T15:03:07;43.20;;;15.70;;
8268;SDS011;4174;48.304;16.364;2022-10-31T15:15:37;48.97;;;16.50;;
8268;SDS011;4174;48.304;16.364;2022-10-31T15:21:42;50.40;;;16.50;;
8268;SDS011;4174;48.304;16.364;2022-10-31T15:27:50;54.57;;;18.23;;
8268;SDS011;4174;48.304;16.364;2022-10-31T15:34:16;55.60;;;18.33;;
8268;SDS011;4174;48.304;16.364;2022-10-31T15:40:20;52.65;;;17.90;;
8268;SDS011;4174;48.304;16.364;2022-10-31T15:46:24;47.72;;;16.30;;
8268;SDS011;4174;48.304;16.364;2022-10-31T15:52:35;50.08;;;17.52;;
8268;SDS011;4174;48.304;16.364;2022-10-31T15:58:42;54.53;;;18.70;;
8268;SDS011;4174;48.304;16.364;2022-10-31T16:04:49;49.03;;;17.15;;
8268;SDS011;4174;48.304;16.364;2022-10-31T16:11:16;52.13;;;18.00;;
8268;SDS011;4174;48.304;16.364;2022-10-31T16:17:33;49.03;;;17.80;;
8268;SDS011;4174;48.304;16.364;2022-10-31T16:23:43;50.77;;;18.20;;
8268;SDS011;4174;48.304;16.364;2022-10-31T16:36:35;44.83;;;17.00;;
8268;SDS011;4174;48.304;16.364;2022-10-31T16:42:42;44.53;;;16.77;;
8268;SDS011;4174;48.304;16.364;2022-10-31T16:48:46;47.15;;;15.80;;
8268;SDS011;4174;48.304;16.364;2022-10-31T16:54:55;38.63;;;14.52;;
8268;SDS011;4174;48.304;16.364;2022-10-31T17:01:03;41.28;;;14.43;;
8268;SDS011;4174;48.304;16.364;2022-10-31T17:07:08;36.47;;;13.63;;
8268;SDS011;4174;48.304;16.364;2022-10-31T17:13:17;38.47;;;13.63;;
8268;SDS011;4174;48.304;16.364;2022-10-31T17:19:24;36.90;;;13.48;;
8268;SDS011;4174;48.304;16.364;2022-10-31T17:25:30;36.53;;;14.23;;
8268;SDS011;4174;48.304;16.364;2022-10-31T17:31:37;34.78;;;13.32;;
8268;SDS011;4174;48.304;16.364;2022-10-31T17:37:41;32.53;;;12.37;;
8268;SDS011;4174;48.304;16.364;2022-10-31T17:43:48;28.50;;;11.65;;
8268;SDS011;4174;48.304;16.364;2022-10-31T17:49:58;29.92;;;11.00;;
8268;SDS011;4174;48.304;16.364;2022-10-31T17:56:04;20.42;;;8.40;;
8268;SDS011;4174;48.304;16.364;2022-10-31T18:02:11;16.95;;;7.50;;
8268;SDS011;4174;48.304;16.364;2022-10-31T18:08:16;18.42;;;7.70;;
8268;SDS011;4174;48.304;16.364;2022-10-31T18:14:22;20.63;;;8.50;;
8268;SDS011;4174;48.304;16.364;2022-10-31T18:20:28;22.47;;;8.50;;
8268;SDS011;4174;48.304;16.364;2022-10-31T18:26:36;17.12;;;6.85;;
8268;SDS011;4174;48.304;16.364;2022-10-31T18:32:42;15.65;;;6.93;;
8268;SDS011;4174;48.304;16.364;2022-10-31T18:38:52;16.52;;;7.05;;
8268;SDS011;4174;48.304;16.364;2022-10-31T18:51:12;14.65;;;6.37;;
8268;SDS011;4174;48.304;16.364;2022-10-31T18:57:20;12.47;;;5.80;;
8268;SDS011;4174;48.304;16.364;2022-10-31T19:03:27;16.48;;;7.32;;
8268;SDS011;4174;48.304;16.364;2022-10-31T19:09:32;17.33;;;7.07;;
8268;SDS011;4174;48.304;16.364;2022-10-31T19:15:38;15.32;;;6.55;;
8268;SDS011;4174;48.304;16.364;2022-10-31T19:21:46;15.48;;;6.45;;
8268;SDS011;4174;48.304;16.364;2022-10-31T19:27:53;16.35;;;6.40;;
8268;SDS011;4174;48.304;16.364;2022-10-31T19:33:59;13.23;;;6.10;;
8268;SDS011;4174;48.304;16.364;2022-10-31T19:40:04;13.73;;;5.53;;
8268;SDS011;4174;48.304;16.364;2022-10-31T19:46:11;12.73;;;5.45;;
8268;SDS011;4174;48.304;16.364;2022-10-31T19:52:16;11.93;;;5.40;;
8268;SDS011;4174;48.304;16.364;2022-10-31T19:58:22;12.47;;;5.70;;
8268;SDS011;4174;48.304;16.364;2022-10-31T20:04:27;12.05;;;5.82;;
8268;SDS011;4174;48.304;16.364;2022-10-31T20:10:37;13.10;;;5.97;;
8268;SDS011;4174;48.304;16.364;2022-10-31T20:16:43;15.37;;;6.73;;
8268;SDS011;4174;48.304;16.364;2022-10-31T20:22:57;15.00;;;6.40;;
8268;SDS011;4174;48.304;16.364;2022-10-31T20:29:03;15.25;;;6.47;;
8268;SDS011;4174;48.304;16.364;2022-10-31T20:35:09;13.70;;;6.33;;
8268;SDS011;4174;48.304;16.364;2022-10-31T20:41:15;17.33;;;7.93;;
8268;SDS011;4174;48.304;16.364;2022-10-31T20:47:24;15.00;;;6.40;;
8268;SDS011;4174;48.304;16.364;2022-10-31T20:53:31;14.45;;;6.30;;
8268;SDS011;4174;48.304;16.364;2022-10-31T20:59:35;15.10;;;6.73;;
8268;SDS011;4174;48.304;16.364;2022-10-31T21:05:40;13.52;;;5.93;;
8268;SDS011;4174;48.304;16.364;2022-10-31T21:11:53;16.87;;;6.20;;
8268;SDS011;4174;48.304;16.364;2022-10-31T21:17:57;14.80;;;6.47;;
8268;SDS011;4174;48.304;16.364;2022-10-31T21:24:04;13.65;;;6.03;;
8268;SDS011;4174;48.304;16.364;2022-10-31T21:30:09;15.10;;;6.13;;
8268;SDS011;4174;48.304;16.364;2022-10-31T21:36:14;12.17;;;5.47;;
8268;SDS011;4174;48.304;16.364;2022-10-31T21:42:20;11.80;;;5.70;;
8268;SDS011;4174;48.304;16.364;2022-10-31T21:48:26;11.48;;;5.35;;
8268;SDS011;4174;48.304;16.364;2022-10-31T21:54:33;12.63;;;5.65;;
8268;SDS011;4174;48.304;16.364;2022-10-31T22:00:40;15.18;;;6.53;;
8268;SDS011;4174;48.304;16.364;2022-10-31T22:06:47;14.48;;;6.10;;
8268;SDS011;4174;48.304;16.364;2022-10-31T22:12:55;15.48;;;6.20;;
8268;SDS011;4174;48.304;16.364;2022-10-31T22:19:03;16.15;;;6.70;;
8268;SDS011;4174;48.304;16.364;2022-10-31T22:25:06;17.37;;;7.07;;
8268;SDS011;4174;48.304;16.364;2022-10-31T22:31:13;15.43;;;6.40;;
8268;SDS011;4174;48.304;16.364;2022-10-31T22:37:18;13.98;;;6.70;;
8268;SDS011;4174;48.304;16.364;2022-10-31T22:43:23;15.67;;;6.83;;
8268;SDS011;4174;48.304;16.364;2022-10-31T22:49:31;16.30;;;6.93;;
8268;SDS011;4174;48.304;16.364;2022-10-31T22:55:39;14.43;;;6.30;;
8268;SDS011;4174;48.304;16.364;2022-10-31T23:01:44;14.27;;;6.37;;
8268;SDS011;4174;48.304;16.364;2022-10-31T23:07:51;19.27;;;7.10;;
8268;SDS011;4174;48.304;16.364;2022-10-31T23:13:55;16.05;;;7.35;;
8268;SDS011;4174;48.304;16.364;2022-10-31T23:20:05;15.90;;;7.00;;
8268;SDS011;4174;48.304;16.364;2022-10-31T23:26:13;15.13;;;6.70;;
8268;SDS011;4174;48.304;16.364;2022-10-31T23:32:26;14.87;;;6.20;;
8268;SDS011;4174;48.304;16.364;2022-10-31T23:38:32;14.57;;;6.33;;
8268;SDS011;4174;48.304;16.364;2022-10-31T23:44:36;16.63;;;7.07;;
8268;SDS011;4174;48.304;16.364;2022-10-31T23:50:45;15.50;;;6.70;;
8268;SDS011;4174;48.304;16.364;2022-10-31T23:56:48;14.93;;;6.57;;
